createdAt,value
2022-11-19T00:00:17.285Z,5.5
2022-11-19T00:01:17.058Z,5
2022-11-19T00:02:17.778Z,5.5
2022-11-19T00:03:16.859Z,5
2022-11-19T00:04:17.195Z,5.5
2022-11-19T00:05:17.554Z,5.5
2022-11-19T00:06:16.747Z,5.5
2022-11-19T00:07:17.388Z,5.5
2022-11-19T00:08:17.571Z,5
2022-11-19T00:09:17.151Z,5
2022-11-19T00:10:17.289Z,5.5
2022-11-19T00:11:16.819Z,5
2022-11-19T00:12:17.481Z,5.5
2022-11-19T00:13:17.309Z,5.4
2022-11-19T00:14:17.146Z,5
2022-11-19T00:15:16.812Z,5.4
2022-11-19T00:16:17.230Z,5.4
2022-11-19T00:17:17.087Z,5.4
2022-11-19T00:18:17.222Z,5.4
2022-11-19T00:19:17.602Z,5.4
2022-11-19T00:20:17.149Z,5.4
2022-11-19T00:21:17.126Z,5.4
2022-11-19T00:22:17.442Z,5.4
2022-11-19T00:23:17.041Z,5.4
2022-11-19T00:24:17.107Z,5.4
2022-11-19T00:25:17.535Z,5
2022-11-19T00:26:17.240Z,5
2022-11-19T00:27:17.591Z,5.4
2022-11-19T00:28:17.069Z,5.4
2022-11-19T00:29:22.521Z,5.4
2022-11-19T00:30:52.215Z,5.4
2022-11-19T00:31:17.113Z,5.4
2022-11-19T00:32:17.496Z,5.3
2022-11-19T00:33:16.791Z,5.4
2022-11-19T00:34:17.173Z,5.4
2022-11-19T00:35:17.535Z,5.3
2022-11-19T00:36:16.912Z,5.3
2022-11-19T00:37:17.381Z,5.3
2022-11-19T00:38:17.688Z,5.4
2022-11-19T00:39:17.713Z,5.4
2022-11-19T00:40:17.376Z,5
2022-11-19T00:41:16.386Z,5
2022-11-19T00:42:17.724Z,5.3
2022-11-19T00:43:15.896Z,5.3
2022-11-19T00:44:17.683Z,5
2022-11-19T00:45:16.447Z,5.3
2022-11-19T00:46:15.908Z,5.3
2022-11-19T00:47:17.627Z,5.3
2022-11-19T00:48:17.166Z,5.3
2022-11-19T00:49:17.006Z,5
2022-11-19T00:50:17.322Z,5.3
2022-11-19T00:51:17.025Z,5.2
2022-11-19T00:52:17.779Z,5.3
2022-11-19T00:53:17.334Z,5
2022-11-19T00:54:17.560Z,5.2
2022-11-19T00:55:17.302Z,5.2
2022-11-19T00:56:17.601Z,5.2
2022-11-19T00:57:17.699Z,5.2
2022-11-19T00:58:17.177Z,5.2
2022-11-19T00:59:17.714Z,5.2
2022-11-19T01:00:16.820Z,5.2
2022-11-19T01:01:17.129Z,5.2
2022-11-19T01:02:17.143Z,5.2
2022-11-19T01:03:16.886Z,5.2
2022-11-19T01:04:17.193Z,5.2
2022-11-19T01:05:17.435Z,5.3
2022-11-19T01:06:21.973Z,5.3
2022-11-19T01:07:17.453Z,5
2022-11-19T01:08:17.652Z,5.3
2022-11-19T01:09:17.068Z,5.3
2022-11-19T01:10:17.315Z,5.4
2022-11-19T01:11:17.669Z,5.3
2022-11-19T01:12:17.357Z,5.3
2022-11-19T01:13:17.784Z,5.3
2022-11-19T01:14:17.439Z,5.3
2022-11-19T01:15:16.899Z,5.4
2022-11-19T01:16:16.505Z,5.4
2022-11-19T01:17:16.895Z,5.4
2022-11-19T01:18:15.990Z,5.4
2022-11-19T01:19:18.080Z,5
2022-11-19T01:20:17.331Z,5.4
2022-11-19T01:21:17.523Z,5.4
2022-11-19T01:22:17.193Z,5.4
2022-11-19T01:23:16.900Z,5.4
2022-11-19T01:24:17.421Z,5.4
2022-11-19T01:25:17.659Z,5
2022-11-19T01:26:17.620Z,5
2022-11-19T01:27:17.050Z,5
2022-11-19T01:28:17.430Z,5
2022-11-19T01:29:17.943Z,5
2022-11-19T01:30:16.969Z,5.5
2022-11-19T01:31:17.438Z,5.5
2022-11-19T01:32:16.891Z,5.5
2022-11-19T01:33:17.170Z,5
2022-11-19T01:34:17.455Z,5
2022-11-19T01:35:16.891Z,5.5
2022-11-19T01:36:17.155Z,5.5
2022-11-19T01:37:17.483Z,5
2022-11-19T01:38:16.875Z,5
2022-11-19T01:39:17.345Z,5
2022-11-19T01:40:17.502Z,5.6
2022-11-19T01:41:15.795Z,5.6
2022-11-19T01:42:17.076Z,5.5
2022-11-19T01:43:17.394Z,5.6
2022-11-19T01:44:17.580Z,5.6
2022-11-19T01:45:17.337Z,5.6
2022-11-19T01:46:16.552Z,5.6
2022-11-19T01:47:17.391Z,5.6
2022-11-19T01:48:16.627Z,5
2022-11-19T01:49:17.077Z,5.6
2022-11-19T01:50:16.000Z,5.6
2022-11-19T01:51:17.590Z,5.6
2022-11-19T01:52:16.919Z,5
2022-11-19T01:53:17.369Z,5
2022-11-19T01:54:17.154Z,5.6
2022-11-19T01:55:17.566Z,5.6
2022-11-19T01:56:17.018Z,5.5
2022-11-19T01:57:17.389Z,5.5
2022-11-19T01:58:17.410Z,5
2022-11-19T01:59:18.047Z,5
2022-11-19T02:00:17.001Z,5
2022-11-19T02:01:17.688Z,5.5
2022-11-19T02:02:16.809Z,5.6
2022-11-19T02:03:17.186Z,5.6
2022-11-19T02:04:17.582Z,5.5
2022-11-19T02:05:17.411Z,5
2022-11-19T02:06:17.792Z,5.6
2022-11-19T02:07:17.391Z,5.6
2022-11-19T02:08:17.320Z,5.6
2022-11-19T02:09:17.361Z,5.6
2022-11-19T02:10:17.452Z,5.6
2022-11-19T02:11:16.905Z,5.5
2022-11-19T02:12:17.349Z,5.6
2022-11-19T02:13:17.579Z,5.6
2022-11-19T02:14:16.937Z,5.6
2022-11-19T02:15:17.383Z,5.6
2022-11-19T02:16:17.260Z,5.6
2022-11-19T02:17:16.927Z,5.6
2022-11-19T02:18:17.109Z,5.6
2022-11-19T02:19:17.397Z,5.6
2022-11-19T02:20:17.345Z,5.6
2022-11-19T02:21:17.471Z,5.6
2022-11-19T02:22:16.116Z,5.6
2022-11-19T02:23:16.980Z,5
2022-11-19T02:24:17.435Z,5
2022-11-19T02:25:16.920Z,5.6
2022-11-19T02:26:17.225Z,5.5
2022-11-19T02:27:17.573Z,5.5
2022-11-19T02:28:17.520Z,5.5
2022-11-19T02:29:17.312Z,5.6
2022-11-19T02:30:17.030Z,5.6
2022-11-19T02:31:16.939Z,5.6
2022-11-19T02:32:17.324Z,5.6
2022-11-19T02:33:17.703Z,5
2022-11-19T02:34:17.147Z,5
2022-11-19T02:35:17.284Z,5.6
2022-11-19T02:36:16.936Z,5.6
2022-11-19T02:37:17.322Z,5.6
2022-11-19T02:38:17.471Z,5.6
2022-11-19T02:39:17.108Z,5.6
2022-11-19T02:40:17.166Z,5.6
2022-11-19T02:41:17.595Z,5.6
2022-11-19T02:42:16.988Z,5
2022-11-19T02:43:17.389Z,5.6
2022-11-19T02:44:17.679Z,5
2022-11-19T02:45:17.061Z,5.6
2022-11-19T02:46:17.407Z,5.6
2022-11-19T02:47:17.749Z,5.6
2022-11-19T02:48:17.132Z,5.6
2022-11-19T02:49:17.719Z,5.5
2022-11-19T02:50:16.781Z,5.5
2022-11-19T02:51:16.954Z,5.6
2022-11-19T02:52:16.762Z,5.6
2022-11-19T02:53:17.273Z,5.6
2022-11-19T02:54:17.719Z,5.5
2022-11-19T02:55:17.260Z,5.5
2022-11-19T02:56:15.932Z,5.5
2022-11-19T02:57:16.843Z,5.6
2022-11-19T02:58:17.184Z,5
2022-11-19T02:59:17.261Z,5
2022-11-19T03:00:17.044Z,5.5
2022-11-19T03:01:17.860Z,5.6
2022-11-19T03:02:16.420Z,5.5
2022-11-19T03:03:17.279Z,5
2022-11-19T03:04:16.795Z,5.5
2022-11-19T03:05:17.560Z,5
2022-11-19T03:06:16.946Z,5.5
2022-11-19T03:07:17.476Z,5.5
2022-11-19T03:08:17.571Z,5.5
2022-11-19T03:09:17.311Z,5.5
2022-11-19T03:10:17.573Z,5
2022-11-19T03:11:17.347Z,5.5
2022-11-19T03:12:17.756Z,5
2022-11-19T03:13:16.745Z,5.5
2022-11-19T03:14:17.117Z,5.5
2022-11-19T03:15:17.617Z,5.5
2022-11-19T03:16:17.459Z,5.5
2022-11-19T03:17:16.811Z,5.5
2022-11-19T03:18:17.053Z,5.5
2022-11-19T03:19:16.121Z,5.5
2022-11-19T03:20:16.994Z,5.5
2022-11-19T03:21:16.244Z,5
2022-11-19T03:22:17.589Z,5.6
2022-11-19T03:23:16.732Z,5.6
2022-11-19T03:24:17.673Z,5.5
2022-11-19T03:25:17.759Z,5.5
2022-11-19T03:26:16.994Z,5
2022-11-19T03:27:17.462Z,5
2022-11-19T03:28:16.843Z,5.5
2022-11-19T03:29:17.657Z,5.5
2022-11-19T03:30:17.728Z,5.5
2022-11-19T03:31:17.154Z,5.5
2022-11-19T03:32:17.658Z,5.5
2022-11-19T03:33:16.812Z,5.5
2022-11-19T03:34:17.164Z,5.5
2022-11-19T03:35:17.134Z,5.5
2022-11-19T03:36:17.266Z,5.5
2022-11-19T03:37:17.690Z,5
2022-11-19T03:38:17.100Z,5.5
2022-11-19T03:39:17.669Z,5.5
2022-11-19T03:40:16.825Z,5.5
2022-11-19T03:41:17.153Z,5.5
2022-11-19T03:42:17.455Z,5.5
2022-11-19T03:43:16.879Z,5.5
2022-11-19T03:44:17.128Z,5.5
2022-11-19T03:45:17.630Z,5
2022-11-19T03:46:16.917Z,5
2022-11-19T03:47:16.128Z,5.5
2022-11-19T03:48:16.265Z,5.5
2022-11-19T03:49:17.222Z,5.5
2022-11-19T03:50:17.436Z,5.5
2022-11-19T03:51:17.523Z,5.5
2022-11-19T03:52:17.295Z,5.5
2022-11-19T03:53:17.528Z,5.5
2022-11-19T03:54:16.918Z,5.5
2022-11-19T03:55:17.419Z,5.5
2022-11-19T03:56:17.686Z,5.5
2022-11-19T03:57:17.451Z,5.5
2022-11-19T03:58:17.495Z,5.4
2022-11-19T03:59:17.325Z,5
2022-11-19T04:00:17.236Z,5.3
2022-11-19T04:01:17.326Z,5.2
2022-11-19T04:02:17.862Z,5.2
2022-11-19T04:03:17.073Z,5.2
2022-11-19T04:04:16.993Z,5.1
2022-11-19T04:05:17.392Z,5.2
2022-11-19T04:06:17.684Z,5.1
2022-11-19T04:07:17.255Z,5.1
2022-11-19T04:08:17.083Z,5.1
2022-11-19T04:09:17.681Z,5.1
2022-11-19T04:10:17.673Z,5
2022-11-19T04:12:17.212Z,5
2022-11-19T04:13:17.689Z,5
2022-11-19T04:14:17.343Z,5
2022-11-19T04:15:15.799Z,5
2022-11-19T04:16:17.825Z,5
2022-11-19T04:17:17.133Z,5
2022-11-19T04:18:17.124Z,5
2022-11-19T04:19:18.191Z,5
2022-11-19T04:20:17.483Z,5
2022-11-19T04:21:16.886Z,4
2022-11-19T04:22:17.332Z,4
2022-11-19T04:23:16.924Z,5
2022-11-19T04:24:17.550Z,5
2022-11-19T04:25:16.943Z,4
2022-11-19T04:26:17.180Z,4
2022-11-19T04:27:17.523Z,4.9
2022-11-19T04:28:17.120Z,4.9
2022-11-19T04:29:17.801Z,4
2022-11-19T04:30:16.808Z,4
2022-11-19T04:31:22.019Z,4.8
2022-11-19T04:32:17.344Z,4.8
2022-11-19T04:33:17.756Z,4.8
2022-11-19T04:34:17.177Z,4.7
2022-11-19T04:35:17.542Z,4.7
2022-11-19T04:36:16.927Z,4.7
2022-11-19T04:37:17.285Z,4.6
2022-11-19T04:38:17.084Z,4.6
2022-11-19T04:39:16.979Z,4.5
2022-11-19T04:40:16.767Z,4.5
2022-11-19T04:41:17.079Z,4.4
2022-11-19T04:42:17.297Z,4.4
2022-11-19T04:43:17.245Z,4.3
2022-11-19T04:44:17.740Z,4.2
2022-11-19T04:45:17.064Z,4.2
2022-11-19T04:46:17.299Z,4.2
2022-11-19T04:47:17.621Z,4.1
2022-11-19T04:48:16.937Z,4.1
2022-11-19T04:49:17.828Z,4.1
2022-11-19T04:50:17.065Z,4
2022-11-19T04:51:17.400Z,3
2022-11-19T04:52:17.804Z,3
2022-11-19T04:53:17.165Z,3.8
2022-11-19T04:54:17.357Z,3.8
2022-11-19T04:55:17.011Z,3.7
2022-11-19T04:56:17.291Z,3
2022-11-19T04:57:16.825Z,3.7
2022-11-19T04:58:17.263Z,3.6
2022-11-19T04:59:18.065Z,3.6
2022-11-19T05:00:17.074Z,3.6
2022-11-19T05:01:17.230Z,3.5
2022-11-19T05:02:17.362Z,3.5
2022-11-19T05:03:17.128Z,3.5
2022-11-19T05:04:16.970Z,3.5
2022-11-19T05:05:17.245Z,3.4
2022-11-19T05:06:16.829Z,3.4
2022-11-19T05:07:16.095Z,3.3
2022-11-19T05:08:16.804Z,3
2022-11-19T05:09:17.784Z,3.3
2022-11-19T05:10:16.846Z,3.3
2022-11-19T05:11:17.268Z,3
2022-11-19T05:12:16.966Z,3
2022-11-19T05:13:16.901Z,3
2022-11-19T05:14:16.974Z,3.2
2022-11-19T05:15:17.088Z,3.2
2022-11-19T05:16:17.218Z,3.2
2022-11-19T05:17:17.000Z,3.2
2022-11-19T05:18:17.370Z,3.1
2022-11-19T05:19:17.963Z,3.1
2022-11-19T05:20:17.014Z,2
2022-11-19T05:21:17.758Z,3.1
2022-11-19T05:22:17.154Z,3.1
2022-11-19T05:23:17.232Z,3.1
2022-11-19T05:24:17.551Z,3.1
2022-11-19T05:25:16.947Z,3
2022-11-19T05:26:17.454Z,3
2022-11-19T05:27:17.788Z,3
2022-11-19T05:28:17.046Z,3
2022-11-19T05:29:17.544Z,2.9
2022-11-19T05:30:17.587Z,2.9
2022-11-19T05:31:17.005Z,2.9
2022-11-19T05:32:16.827Z,2.8
2022-11-19T05:33:16.143Z,2.8
2022-11-19T05:34:16.847Z,2.8
2022-11-19T05:35:17.426Z,2.8
2022-11-19T05:36:17.401Z,2.8
2022-11-19T05:37:16.997Z,2.8
2022-11-19T05:38:17.099Z,2.8
2022-11-19T05:39:25.029Z,2.8
2022-11-19T05:40:16.818Z,2.8
2022-11-19T05:41:17.443Z,2.8
2022-11-19T05:42:17.673Z,2.7
2022-11-19T05:43:16.952Z,2
2022-11-19T05:44:17.751Z,2
2022-11-19T05:45:17.682Z,2.7
2022-11-19T05:46:17.178Z,2.7
2022-11-19T05:47:17.711Z,2.7
2022-11-19T05:48:17.552Z,2.7
2022-11-19T05:49:17.224Z,2.7
2022-11-19T05:50:17.451Z,2.7
2022-11-19T05:51:17.842Z,2.7
2022-11-19T05:52:17.185Z,2.7
2022-11-19T05:53:17.558Z,2
2022-11-19T05:54:17.662Z,2.6
2022-11-19T05:55:17.753Z,2
2022-11-19T05:56:17.204Z,2.6
2022-11-19T05:57:17.494Z,2.6
2022-11-19T05:58:16.888Z,2
2022-11-19T05:59:17.543Z,2.6
2022-11-19T06:00:17.184Z,2
2022-11-19T06:01:16.377Z,2.6
2022-11-19T06:02:17.667Z,2.6
2022-11-19T06:03:17.244Z,2.6
2022-11-19T06:04:16.877Z,2.6
2022-11-19T06:05:17.280Z,2.6
2022-11-19T06:06:17.714Z,2
2022-11-19T06:07:17.284Z,2
2022-11-19T06:08:17.666Z,2
2022-11-19T06:09:17.398Z,2.6
2022-11-19T06:10:17.409Z,2.6
2022-11-19T06:11:17.771Z,2
2022-11-19T06:12:17.717Z,2.5
2022-11-19T06:13:17.019Z,2.5
2022-11-19T06:14:17.330Z,2.5
2022-11-19T06:15:17.887Z,2.5
2022-11-19T06:16:17.698Z,2.5
2022-11-19T06:17:17.127Z,2.5
2022-11-19T06:18:17.416Z,2
2022-11-19T06:19:17.099Z,2.5
2022-11-19T06:20:17.371Z,2
2022-11-19T06:21:17.729Z,2.5
2022-11-19T06:22:17.071Z,2.5
2022-11-19T06:23:17.818Z,2.5
2022-11-19T06:24:17.271Z,2.5
2022-11-19T06:25:17.663Z,2.5
2022-11-19T06:26:17.053Z,2.6
2022-11-19T06:27:17.391Z,2.5
2022-11-19T06:28:17.685Z,2.5
2022-11-19T06:29:18.039Z,2.5
2022-11-19T06:30:17.189Z,2
2022-11-19T06:31:17.937Z,2.5
2022-11-19T06:32:17.246Z,2.5
2022-11-19T06:33:17.242Z,2.6
2022-11-19T06:34:17.676Z,2.6
2022-11-19T06:35:18.604Z,2.6
2022-11-19T06:36:17.746Z,2.5
2022-11-19T06:37:17.772Z,2.5
2022-11-19T06:38:17.103Z,2.5
2022-11-19T06:39:17.938Z,2.5
2022-11-19T06:40:17.030Z,2.5
2022-11-19T06:41:17.284Z,2.5
2022-11-19T06:42:17.736Z,2.5
2022-11-19T06:43:17.233Z,2.6
2022-11-19T06:44:17.411Z,2.6
2022-11-19T06:45:16.896Z,2.5
2022-11-19T06:46:17.155Z,2.5
2022-11-19T06:47:17.648Z,2.6
2022-11-19T06:48:17.062Z,2.6
2022-11-19T06:49:24.616Z,2
2022-11-19T06:50:17.318Z,2.6
2022-11-19T06:51:16.978Z,2.6
2022-11-19T06:52:17.301Z,2.6
2022-11-19T06:53:17.243Z,2.6
2022-11-19T06:54:17.443Z,2.6
2022-11-19T06:55:16.884Z,2.6
2022-11-19T06:56:17.195Z,2.6
2022-11-19T06:57:16.392Z,2.6
2022-11-19T06:58:17.765Z,2.6
2022-11-19T06:59:17.861Z,2.6
2022-11-19T07:00:17.707Z,2.6
2022-11-19T07:01:17.792Z,2.6
2022-11-19T07:02:22.312Z,2.6
2022-11-19T07:03:17.197Z,2.7
2022-11-19T07:04:17.514Z,2.6
2022-11-19T07:05:16.935Z,2
2022-11-19T07:07:17.961Z,2.7
2022-11-19T07:08:17.271Z,2.6
2022-11-19T07:09:17.909Z,2.6
2022-11-19T07:10:17.829Z,2.6
2022-11-19T07:11:17.109Z,2
2022-11-19T07:12:17.383Z,2.7
2022-11-19T07:13:17.784Z,2
2022-11-19T07:14:17.506Z,2.7
2022-11-19T07:15:17.909Z,2.7
2022-11-19T07:16:17.047Z,2.7
2022-11-19T07:17:17.505Z,2.7
2022-11-19T07:18:17.070Z,2
2022-11-19T07:19:17.887Z,2.7
2022-11-19T07:20:16.943Z,2.7
2022-11-19T07:21:17.291Z,2.8
2022-11-19T07:22:17.596Z,2.8
2022-11-19T07:23:17.153Z,2.8
2022-11-19T07:24:16.950Z,2.8
2022-11-19T07:25:17.240Z,2.8
2022-11-19T07:26:17.161Z,2.8
2022-11-19T07:27:17.505Z,2.8
2022-11-19T07:28:17.081Z,2.8
2022-11-19T07:29:17.578Z,2.8
2022-11-19T07:30:17.138Z,2.8
2022-11-19T07:31:17.726Z,2.8
2022-11-19T07:32:17.468Z,2.8
2022-11-19T07:33:16.721Z,2
2022-11-19T07:34:17.315Z,2
2022-11-19T07:35:17.756Z,2.8
2022-11-19T07:36:22.486Z,2.8
2022-11-19T07:37:17.233Z,2.8
2022-11-19T07:38:17.307Z,2.8
2022-11-19T07:39:17.078Z,2.8
2022-11-19T07:40:17.412Z,2
2022-11-19T07:41:17.448Z,2
2022-11-19T07:42:17.806Z,2.8
2022-11-19T07:43:17.514Z,2.8
2022-11-19T07:44:17.763Z,2
2022-11-19T07:45:17.662Z,2.8
2022-11-19T07:46:17.092Z,2.8
2022-11-19T07:47:17.553Z,2.8
2022-11-19T07:48:17.758Z,2.8
2022-11-19T07:49:17.331Z,2.8
2022-11-19T07:50:17.352Z,2.8
2022-11-19T07:51:17.586Z,2.8
2022-11-19T07:52:16.911Z,2
2022-11-19T07:53:17.338Z,2.8
2022-11-19T07:54:17.667Z,2.8
2022-11-19T07:55:17.105Z,2.8
2022-11-19T07:56:16.439Z,2.8
2022-11-19T07:57:17.306Z,2.8
2022-11-19T07:58:16.586Z,2.8
2022-11-19T07:59:17.987Z,2.8
2022-11-19T08:00:17.060Z,2.8
2022-11-19T08:01:17.843Z,2.8
2022-11-19T08:02:17.324Z,2.8
2022-11-19T08:03:17.246Z,2.9
2022-11-19T08:04:17.487Z,2.9
2022-11-19T08:05:17.218Z,2.9
2022-11-19T08:06:17.523Z,2.9
2022-11-19T08:07:18.040Z,2.9
2022-11-19T08:08:17.030Z,2.9
2022-11-19T08:09:18.113Z,2.9
2022-11-19T08:10:17.113Z,2.9
2022-11-19T08:11:17.257Z,2.9
2022-11-19T08:12:17.410Z,2.9
2022-11-19T08:13:17.701Z,2.9
2022-11-19T08:14:17.166Z,2.9
2022-11-19T08:15:17.010Z,2.9
2022-11-19T08:16:17.351Z,2.9
2022-11-19T08:17:17.657Z,2.9
2022-11-19T08:18:17.030Z,3
2022-11-19T08:19:17.798Z,2
2022-11-19T08:20:17.753Z,2.9
2022-11-19T08:21:17.201Z,2.9
2022-11-19T08:22:17.028Z,2.9
2022-11-19T08:23:17.488Z,2.9
2022-11-19T08:24:18.096Z,2.9
2022-11-19T08:25:17.865Z,2.9
2022-11-19T08:26:16.710Z,2.9
2022-11-19T08:27:17.823Z,2.8
2022-11-19T08:28:16.997Z,2
2022-11-19T08:29:20.812Z,2.8
2022-11-19T08:30:17.623Z,2
2022-11-19T08:31:17.564Z,2.9
2022-11-19T08:32:17.024Z,2.9
2022-11-19T08:33:17.588Z,2.9
2022-11-19T08:34:17.996Z,3
2022-11-19T08:35:17.091Z,2.9
2022-11-19T08:36:17.512Z,2.9
2022-11-19T08:37:17.741Z,2.9
2022-11-19T08:38:17.565Z,2.9
2022-11-19T08:39:16.954Z,2.9
2022-11-19T08:40:17.661Z,2.9
2022-11-19T08:41:17.067Z,3
2022-11-19T08:42:17.688Z,3
2022-11-19T08:43:17.071Z,3
2022-11-19T08:44:17.978Z,3
2022-11-19T08:45:23.125Z,3
2022-11-19T08:46:17.924Z,3.1
2022-11-19T08:47:16.816Z,3.1
2022-11-19T08:48:17.033Z,3.1
2022-11-19T08:49:16.936Z,3.1
2022-11-19T08:50:17.376Z,3.2
2022-11-19T08:51:17.941Z,3
2022-11-19T08:52:17.082Z,3.2
2022-11-19T08:53:17.515Z,3
2022-11-19T08:54:18.114Z,3.2
2022-11-19T08:55:17.101Z,3.2
2022-11-19T08:56:22.182Z,3.2
2022-11-19T08:57:17.352Z,3.2
2022-11-19T08:58:17.068Z,3.2
2022-11-19T08:59:17.585Z,3.2
2022-11-19T09:00:17.248Z,3.2
2022-11-19T09:01:17.324Z,3
2022-11-19T09:02:17.535Z,3
2022-11-19T09:03:17.795Z,3
2022-11-19T09:04:17.242Z,3.2
2022-11-19T09:05:18.973Z,3.2
2022-11-19T09:06:17.511Z,3.2
2022-11-19T09:07:18.120Z,3.2
2022-11-19T09:08:17.778Z,3.2
2022-11-19T09:09:17.149Z,3.2
2022-11-19T09:10:17.707Z,3
2022-11-19T09:11:16.081Z,3.3
2022-11-19T09:12:16.680Z,3.3
2022-11-19T09:13:17.216Z,3.3
2022-11-19T09:14:18.215Z,3.3
2022-11-19T09:15:17.237Z,3.3
2022-11-19T09:16:17.641Z,3.3
2022-11-19T09:17:16.802Z,3.4
2022-11-19T09:18:17.430Z,3
2022-11-19T09:19:17.896Z,3.3
2022-11-19T09:20:17.491Z,3.3
2022-11-19T09:21:17.881Z,3.4
2022-11-19T09:22:17.363Z,3.4
2022-11-19T09:23:17.677Z,3.4
2022-11-19T09:24:17.578Z,3.4
2022-11-19T09:25:17.483Z,3.4
2022-11-19T09:26:16.775Z,3.3
2022-11-19T09:27:17.385Z,3.4
2022-11-19T09:28:17.114Z,3.3
2022-11-19T09:29:17.471Z,3.4
2022-11-19T09:30:17.820Z,3
2022-11-19T09:31:17.058Z,3.4
2022-11-19T09:32:19.929Z,3.3
2022-11-19T09:33:16.897Z,3.4
2022-11-19T09:34:17.858Z,3.4
2022-11-19T09:35:17.611Z,3.3
2022-11-19T09:36:17.539Z,3.4
2022-11-19T09:37:17.780Z,3.4
2022-11-19T09:38:17.271Z,3.4
2022-11-19T09:39:17.148Z,3.4
2022-11-19T09:40:17.651Z,3.4
2022-11-19T09:41:16.965Z,3.4
2022-11-19T09:42:16.956Z,3.4
2022-11-19T09:43:19.822Z,3.4
2022-11-19T09:44:17.222Z,3.4
2022-11-19T09:45:17.424Z,3.4
2022-11-19T09:46:17.810Z,3.4
2022-11-19T09:47:17.142Z,3.4
2022-11-19T09:48:17.395Z,3.5
2022-11-19T09:49:17.760Z,3.5
2022-11-19T09:50:17.235Z,3.5
2022-11-19T09:51:17.633Z,3.6
2022-11-19T09:52:16.893Z,3
2022-11-19T09:53:17.345Z,3.6
2022-11-19T09:54:17.946Z,3.6
2022-11-19T09:55:17.025Z,3.6
2022-11-19T09:56:17.309Z,3.7
2022-11-19T09:57:17.595Z,3.6
2022-11-19T09:58:17.491Z,3.6
2022-11-19T09:59:17.013Z,3.8
2022-11-19T10:00:17.496Z,3.7
2022-11-19T10:01:17.103Z,3.7
2022-11-19T10:02:17.030Z,3.7
2022-11-19T10:03:17.585Z,3.8
2022-11-19T10:04:17.661Z,3.8
2022-11-19T10:05:17.774Z,3
2022-11-19T10:06:17.445Z,3
2022-11-19T10:07:17.949Z,3.9
2022-11-19T10:08:17.373Z,3.9
2022-11-19T10:09:17.737Z,3.9
2022-11-19T10:10:17.328Z,3.9
2022-11-19T10:11:17.311Z,4
2022-11-19T10:12:17.693Z,4
2022-11-19T10:13:17.095Z,3
2022-11-19T10:14:17.869Z,3
2022-11-19T10:15:17.780Z,4
2022-11-19T10:16:17.630Z,3
2022-11-19T10:17:17.117Z,4
2022-11-19T10:18:17.457Z,4
2022-11-19T10:19:17.963Z,4
2022-11-19T10:20:16.214Z,4
2022-11-19T10:21:17.618Z,4.1
2022-11-19T10:22:16.121Z,4.1
2022-11-19T10:23:17.037Z,4
2022-11-19T10:24:18.484Z,4
2022-11-19T10:25:17.220Z,4.1
2022-11-19T10:26:17.194Z,4.1
2022-11-19T10:27:17.476Z,4.1
2022-11-19T10:28:16.880Z,4.1
2022-11-19T10:29:18.132Z,4.1
2022-11-19T10:30:17.890Z,4.2
2022-11-19T10:31:17.181Z,4.2
2022-11-19T10:32:17.900Z,4.2
2022-11-19T10:33:17.122Z,4.3
2022-11-19T10:34:17.046Z,4.4
2022-11-19T10:35:17.306Z,4.4
2022-11-19T10:36:17.574Z,4
2022-11-19T10:37:16.952Z,4.4
2022-11-19T10:38:17.394Z,4.4
2022-11-19T10:39:17.256Z,4.4
2022-11-19T10:40:17.207Z,4.4
2022-11-19T10:41:17.689Z,4.4
2022-11-19T10:42:17.098Z,4.4
2022-11-19T10:43:23.098Z,4.3
2022-11-19T10:44:16.330Z,4.3
2022-11-19T10:45:17.713Z,4.3
2022-11-19T10:46:17.582Z,4.3
2022-11-19T10:47:17.366Z,4.3
2022-11-19T10:48:17.803Z,4.3
2022-11-19T10:49:17.302Z,4.3
2022-11-19T10:50:17.126Z,4.3
2022-11-19T10:51:16.876Z,4.3
2022-11-19T10:52:17.240Z,4.3
2022-11-19T10:53:17.116Z,4.3
2022-11-19T10:54:17.126Z,4.2
2022-11-19T10:55:17.034Z,4.2
2022-11-19T10:56:17.332Z,4.2
2022-11-19T10:57:17.240Z,4.2
2022-11-19T10:58:17.796Z,4.2
2022-11-19T10:59:17.386Z,4.1
2022-11-19T11:00:17.633Z,4
2022-11-19T11:01:17.108Z,4.2
2022-11-19T11:02:17.391Z,4.2
2022-11-19T11:03:17.924Z,4.2
2022-11-19T11:04:17.195Z,4.2
2022-11-19T11:05:17.579Z,4.1
2022-11-19T11:06:16.999Z,4.1
2022-11-19T11:07:17.544Z,4.1
2022-11-19T11:08:17.892Z,4.1
2022-11-19T11:09:17.415Z,4.1
2022-11-19T11:10:17.361Z,4.1
2022-11-19T11:11:17.729Z,4.1
2022-11-19T11:12:17.097Z,4.1
2022-11-19T11:13:17.555Z,4.1
2022-11-19T11:14:16.922Z,4
2022-11-19T11:15:16.418Z,4.1
2022-11-19T11:16:17.414Z,4.1
2022-11-19T11:17:16.073Z,4.1
2022-11-19T11:18:17.127Z,4.1
2022-11-19T11:19:18.384Z,4.1
2022-11-19T11:20:17.219Z,4.1
2022-11-19T11:21:16.449Z,4.1
2022-11-19T11:22:17.414Z,4.1
2022-11-19T11:23:17.806Z,4.1
2022-11-19T11:24:17.405Z,4
2022-11-19T11:25:17.777Z,4
2022-11-19T11:26:17.104Z,4
2022-11-19T11:27:17.181Z,4
2022-11-19T11:28:17.510Z,4
2022-11-19T11:29:17.751Z,4
2022-11-19T11:30:17.153Z,4
2022-11-19T11:31:17.364Z,4
2022-11-19T11:32:17.483Z,4
2022-11-19T11:33:16.938Z,4
2022-11-19T11:34:17.341Z,4
2022-11-19T11:35:20.461Z,4
2022-11-19T11:36:17.056Z,4
2022-11-19T11:37:17.533Z,4
2022-11-19T11:38:17.099Z,4
2022-11-19T11:39:17.466Z,3.9
2022-11-19T11:40:17.928Z,3.9
2022-11-19T11:42:13.152Z,3.9
2022-11-19T11:42:21.960Z,3.9
2022-11-19T11:43:17.617Z,3.9
2022-11-19T11:44:16.985Z,3.9
2022-11-19T11:45:17.500Z,3.9
2022-11-19T11:46:17.644Z,3.9
2022-11-19T11:47:17.447Z,3
2022-11-19T11:48:17.739Z,3.9
2022-11-19T11:49:17.235Z,3.9
2022-11-19T11:50:17.848Z,3.9
2022-11-19T11:51:17.306Z,3.9
2022-11-19T11:52:17.550Z,3.9
2022-11-19T11:53:17.286Z,3.9
2022-11-19T11:54:22.115Z,4
2022-11-19T11:55:17.194Z,4
2022-11-19T11:56:17.554Z,4
2022-11-19T11:57:16.945Z,4
2022-11-19T11:58:17.225Z,3.9
2022-11-19T11:59:17.934Z,3
2022-11-19T12:00:17.583Z,3
2022-11-19T12:01:20.042Z,3.9
2022-11-19T12:02:16.642Z,3.9
2022-11-19T12:03:18.046Z,3.9
2022-11-19T12:04:17.203Z,3.9
2022-11-19T12:05:16.973Z,3.9
2022-11-19T12:06:17.765Z,3.9
2022-11-19T12:07:18.117Z,3.9
2022-11-19T12:08:17.258Z,3.9
2022-11-19T12:09:17.874Z,3.9
2022-11-19T12:10:17.113Z,3.9
2022-11-19T12:11:17.262Z,3
2022-11-19T12:12:17.466Z,3.9
2022-11-19T12:13:16.950Z,3.9
2022-11-19T12:14:17.347Z,3.9
2022-11-19T12:15:17.951Z,3.9
2022-11-19T12:16:17.794Z,3.9
2022-11-19T12:17:17.650Z,3.9
2022-11-19T12:18:17.057Z,4
2022-11-19T12:19:17.898Z,4
2022-11-19T12:20:17.886Z,4
2022-11-19T12:21:17.135Z,4
2022-11-19T12:22:17.432Z,4
2022-11-19T12:23:17.272Z,4
2022-11-19T12:24:17.526Z,3
2022-11-19T12:25:16.555Z,4
2022-11-19T12:26:17.023Z,4
2022-11-19T12:27:16.241Z,4
2022-11-19T12:28:16.053Z,4
2022-11-19T12:29:17.695Z,4
2022-11-19T12:30:17.082Z,3.9
2022-11-19T12:31:19.044Z,4
2022-11-19T12:32:17.850Z,4
2022-11-19T12:33:17.703Z,4
2022-11-19T12:34:17.692Z,3.9
2022-11-19T12:35:17.302Z,3.9
2022-11-19T12:36:17.385Z,3.9
2022-11-19T12:37:17.767Z,3.9
2022-11-19T12:38:17.075Z,3.8
2022-11-19T12:39:17.134Z,3.9
2022-11-19T12:40:17.281Z,3.9
2022-11-19T12:41:17.893Z,3.9
2022-11-19T12:42:17.270Z,3.9
2022-11-19T12:43:17.723Z,4
2022-11-19T12:44:17.008Z,3.9
2022-11-19T12:45:17.501Z,3.9
2022-11-19T12:46:17.231Z,3.9
2022-11-19T12:47:16.310Z,3.9
2022-11-19T12:48:16.328Z,3.8
2022-11-19T12:49:18.044Z,3.8
2022-11-19T12:50:17.173Z,3.8
2022-11-19T12:51:17.110Z,3
2022-11-19T12:52:17.516Z,3.8
2022-11-19T12:53:17.206Z,3.8
2022-11-19T12:54:34.862Z,3.9
2022-11-19T12:55:17.130Z,3.9
2022-11-19T12:56:17.364Z,3
2022-11-19T12:57:17.774Z,3
2022-11-19T12:58:17.113Z,3.8
2022-11-19T12:59:18.050Z,3.8
2022-11-19T13:00:17.654Z,3.9
2022-11-19T13:01:17.511Z,3.8
2022-11-19T13:02:17.519Z,3.9
2022-11-19T13:03:17.972Z,3
2022-11-19T13:04:17.276Z,3
2022-11-19T13:05:17.830Z,4
2022-11-19T13:06:22.018Z,4
2022-11-19T13:07:17.637Z,4
2022-11-19T13:08:17.929Z,4
2022-11-19T13:09:16.048Z,3
2022-11-19T13:10:16.494Z,4.1
2022-11-19T13:11:17.236Z,3
2022-11-19T13:12:17.609Z,3
2022-11-19T13:13:16.909Z,3
2022-11-19T13:14:17.035Z,3
2022-11-19T13:15:17.141Z,4.2
2022-11-19T13:16:17.581Z,4.2
2022-11-19T13:17:16.836Z,4.2
2022-11-19T13:18:17.495Z,4.2
2022-11-19T13:19:18.245Z,4.1
2022-11-19T13:20:17.341Z,4.1
2022-11-19T13:21:17.705Z,4.1
2022-11-19T13:22:17.005Z,4
2022-11-19T13:23:17.252Z,4
2022-11-19T13:24:17.043Z,4
2022-11-19T13:25:17.429Z,4
2022-11-19T13:26:17.526Z,4
2022-11-19T13:27:23.360Z,4
2022-11-19T13:28:17.151Z,4
2022-11-19T13:29:17.861Z,3.9
2022-11-19T13:30:16.906Z,3.9
2022-11-19T13:31:17.270Z,3.9
2022-11-19T13:32:17.098Z,3.9
2022-11-19T13:33:17.345Z,4
2022-11-19T13:34:17.655Z,4
2022-11-19T13:35:17.915Z,3.9
2022-11-19T13:36:17.548Z,4
2022-11-19T13:37:16.975Z,4
2022-11-19T13:38:17.272Z,4
2022-11-19T13:39:17.898Z,4
2022-11-19T13:40:17.358Z,4
2022-11-19T13:41:17.636Z,3.9
2022-11-19T13:42:17.190Z,3.9
2022-11-19T13:43:47.577Z,3.9
2022-11-19T13:44:17.386Z,3.9
2022-11-19T13:45:17.872Z,3.9
2022-11-19T13:46:15.886Z,4
2022-11-19T13:47:17.112Z,4
2022-11-19T13:48:16.976Z,3.8
2022-11-19T13:49:17.410Z,3.8
2022-11-19T13:50:17.492Z,3.8
2022-11-19T13:51:17.860Z,3.8
2022-11-19T13:52:17.878Z,3.7
2022-11-19T13:53:17.222Z,3.7
2022-11-19T13:54:17.619Z,3.6
2022-11-19T13:55:16.193Z,3.6
2022-11-19T13:56:16.316Z,3.6
2022-11-19T13:57:16.309Z,3.6
2022-11-19T13:58:17.796Z,3
2022-11-19T13:59:18.035Z,3.6
2022-11-19T14:00:17.139Z,3.6
2022-11-19T14:01:17.723Z,3.6
2022-11-19T14:02:17.424Z,3.6